EZY58B EGKK-EHRD
Flight info
| Callsign | EZY58B |
|---|---|
| Flight time | 0h 44m |
| Altitude | 23000 |
| Route | FRANE M604 GASBA M197 REDFA |
| Aircraft | A20N/M-SDE2E3FGHIRWXY/LB1 |
Departure
| Time | 2026-04-16 09:29 |
|---|---|
| Airport | London Gatwick Airport (EGKK) |
Arrival
| Time | 2026-04-16 10:13 |
|---|---|
| Airport | Rotterdam The Hague Airport (EHRD) |
| Time | Latitude | Longitude | Altitude | Speed | Heading |
|---|---|---|---|---|---|
| 2026-04-16 08:48 | 51.15431 | -0.17703 | 204 ft | 0 kts | 167° |
| 2026-04-16 09:15 | 51.15432 | -0.17703 | 204 ft | 1 kts | 167° |
| 2026-04-16 09:15 | 51.15439 | -0.17706 | 209 ft | 1 kts | 167° |
| 2026-04-16 09:15 | 51.15447 | -0.17708 | 204 ft | 1 kts | 167° |
| 2026-04-16 09:15 | 51.15454 | -0.17711 | 203 ft | 1 kts | 167° |
| 2026-04-16 09:16 | 51.15462 | -0.17714 | 204 ft | 1 kts | 166° |
| 2026-04-16 09:16 | 51.15469 | -0.17717 | 204 ft | 1 kts | 166° |
| 2026-04-16 09:16 | 51.15477 | -0.17720 | 207 ft | 1 kts | 166° |
| 2026-04-16 09:16 | 51.15484 | -0.17722 | 209 ft | 1 kts | 159° |
| 2026-04-16 09:17 | 51.15492 | -0.17728 | 213 ft | 1 kts | 148° |
| 2026-04-16 09:17 | 51.15499 | -0.17736 | 210 ft | 1 kts | 126° |
| 2026-04-16 09:17 | 51.15504 | -0.17749 | 214 ft | 1 kts | 101° |
| 2026-04-16 09:17 | 51.15505 | -0.17761 | 210 ft | 0 kts | 77° |
| 2026-04-16 09:23 | 51.15505 | -0.17759 | 204 ft | 1 kts | 77° |
| 2026-04-16 09:23 | 51.15506 | -0.17748 | 204 ft | 1 kts | 79° |
| 2026-04-16 09:23 | 51.15507 | -0.17742 | 212 ft | 1 kts | 80° |
| 2026-04-16 09:23 | 51.15514 | -0.17696 | 207 ft | 9 kts | 76° |
| 2026-04-16 09:24 | 51.15535 | -0.17555 | 211 ft | 16 kts | 79° |
| 2026-04-16 09:24 | 51.15500 | -0.17424 | 207 ft | 14 kts | 160° |
| 2026-04-16 09:24 | 51.15399 | -0.17387 | 207 ft | 16 kts | 167° |
| 2026-04-16 09:24 | 51.15315 | -0.17355 | 213 ft | 9 kts | 166° |
| 2026-04-16 09:25 | 51.15251 | -0.17307 | 205 ft | 12 kts | 124° |
| 2026-04-16 09:25 | 51.15257 | -0.17167 | 208 ft | 15 kts | 78° |
| 2026-04-16 09:25 | 51.15284 | -0.16981 | 205 ft | 17 kts | 78° |
| 2026-04-16 09:25 | 51.15288 | -0.16863 | 210 ft | 9 kts | 112° |
| 2026-04-16 09:26 | 51.15256 | -0.16824 | 208 ft | 0 kts | 154° |
| 2026-04-16 09:27 | 51.15254 | -0.16822 | 208 ft | 2 kts | 155° |
| 2026-04-16 09:27 | 51.15213 | -0.16805 | 211 ft | 10 kts | 168° |
| 2026-04-16 09:27 | 51.15123 | -0.16840 | 205 ft | 17 kts | 233° |
| 2026-04-16 09:27 | 51.15105 | -0.16902 | 211 ft | 0 kts | 249° |
| 2026-04-16 09:28 | 51.15098 | -0.16943 | 210 ft | 24 kts | 255° |
| 2026-04-16 09:28 | 51.15014 | -0.17579 | 218 ft | 90 kts | 258° |
| 2026-04-16 09:28 | 51.14837 | -0.18841 | 211 ft | 141 kts | 257° |
| 2026-04-16 09:29 | 51.14637 | -0.20399 | 750 ft | 139 kts | 256° |
| 2026-04-16 09:29 | 51.14450 | -0.21909 | 1408 ft | 141 kts | 255° |
| 2026-04-16 09:29 | 51.14225 | -0.23441 | 2053 ft | 146 kts | 254° |
| 2026-04-16 09:29 | 51.13969 | -0.25117 | 2574 ft | 166 kts | 256° |
| 2026-04-16 09:30 | 51.13692 | -0.27001 | 3059 ft | 185 kts | 256° |
| 2026-04-16 09:30 | 51.13716 | -0.29176 | 3479 ft | 212 kts | 287° |
| 2026-04-16 09:30 | 51.14566 | -0.31157 | 3896 ft | 223 kts | 317° |
| 2026-04-16 09:30 | 51.16000 | -0.32177 | 3997 ft | 236 kts | 348° |
| 2026-04-16 09:31 | 51.17646 | -0.31856 | 4001 ft | 245 kts | 21° |
| 2026-04-16 09:31 | 51.18997 | -0.30213 | 3997 ft | 249 kts | 53° |
| 2026-04-16 09:31 | 51.19749 | -0.27739 | 3999 ft | 250 kts | 74° |
| 2026-04-16 09:31 | 51.20128 | -0.25042 | 4261 ft | 253 kts | 82° |
| 2026-04-16 09:32 | 51.20399 | -0.22269 | 5090 ft | 253 kts | 83° |
| 2026-04-16 09:32 | 51.20671 | -0.19485 | 6130 ft | 258 kts | 82° |
| 2026-04-16 09:32 | 51.20998 | -0.16542 | 6734 ft | 281 kts | 81° |
| 2026-04-16 09:32 | 51.21382 | -0.13395 | 7480 ft | 293 kts | 80° |
| 2026-04-16 09:33 | 51.21788 | -0.10191 | 8471 ft | 297 kts | 79° |
| 2026-04-16 09:33 | 51.22204 | -0.06924 | 9446 ft | 303 kts | 79° |
| 2026-04-16 09:33 | 51.22626 | -0.03600 | 10404 ft | 309 kts | 79° |
| 2026-04-16 09:33 | 51.23063 | -0.00132 | 10881 ft | 331 kts | 79° |
| 2026-04-16 09:34 | 51.23530 | 0.03596 | 11253 ft | 354 kts | 79° |
| 2026-04-16 09:34 | 51.24018 | 0.07508 | 11927 ft | 364 kts | 79° |
| 2026-04-16 09:34 | 51.24515 | 0.11503 | 12693 ft | 369 kts | 79° |
| 2026-04-16 09:34 | 51.25014 | 0.15537 | 13023 ft | 373 kts | 80° |
| 2026-04-16 09:35 | 51.25302 | 0.19643 | 13145 ft | 372 kts | 89° |
| 2026-04-16 09:35 | 51.25193 | 0.23771 | 12803 ft | 371 kts | 98° |
| 2026-04-16 09:35 | 51.24837 | 0.27858 | 12760 ft | 371 kts | 99° |
| 2026-04-16 09:35 | 51.24488 | 0.31940 | 12728 ft | 371 kts | 99° |
| 2026-04-16 09:36 | 51.24145 | 0.36021 | 12718 ft | 371 kts | 99° |
| 2026-04-16 09:36 | 51.23804 | 0.40099 | 12716 ft | 371 kts | 99° |
| 2026-04-16 09:36 | 51.23461 | 0.44179 | 12719 ft | 371 kts | 99° |
| 2026-04-16 09:36 | 51.23383 | 0.48287 | 12716 ft | 372 kts | 82° |
| 2026-04-16 09:37 | 51.24158 | 0.52203 | 12720 ft | 372 kts | 61° |
| 2026-04-16 09:37 | 51.25724 | 0.55447 | 12755 ft | 369 kts | 39° |
| 2026-04-16 09:37 | 51.27866 | 0.57599 | 12797 ft | 363 kts | 18° |
| 2026-04-16 09:37 | 51.30292 | 0.58675 | 12836 ft | 361 kts | 9° |
| 2026-04-16 09:38 | 51.32736 | 0.59553 | 12871 ft | 360 kts | 9° |
| 2026-04-16 09:38 | 51.35185 | 0.60440 | 12911 ft | 361 kts | 10° |
| 2026-04-16 09:38 | 51.37513 | 0.61980 | 13156 ft | 367 kts | 31° |
| 2026-04-16 09:38 | 51.39442 | 0.64668 | 13156 ft | 371 kts | 44° |
| 2026-04-16 09:39 | 51.41218 | 0.67673 | 13156 ft | 371 kts | 45° |
| 2026-04-16 09:39 | 51.42944 | 0.70672 | 13158 ft | 371 kts | 46° |
| 2026-04-16 09:39 | 51.44716 | 0.73748 | 13157 ft | 371 kts | 45° |
| 2026-04-16 09:39 | 51.46453 | 0.76741 | 13159 ft | 372 kts | 45° |
| 2026-04-16 09:40 | 51.48227 | 0.79780 | 13447 ft | 376 kts | 45° |
| 2026-04-16 09:40 | 51.50022 | 0.82849 | 14322 ft | 377 kts | 45° |
| 2026-04-16 09:40 | 51.51831 | 0.85943 | 15072 ft | 383 kts | 45° |
| 2026-04-16 09:40 | 51.53665 | 0.89083 | 15773 ft | 388 kts | 44° |
| 2026-04-16 09:41 | 51.55524 | 0.92271 | 16494 ft | 394 kts | 44° |
| 2026-04-16 09:41 | 51.57406 | 0.95502 | 17202 ft | 399 kts | 44° |
| 2026-04-16 09:41 | 51.59316 | 0.98785 | 17907 ft | 404 kts | 44° |
| 2026-04-16 09:41 | 51.61247 | 1.02108 | 18580 ft | 410 kts | 43° |
| 2026-04-16 09:42 | 51.63199 | 1.05473 | 19220 ft | 413 kts | 43° |
| 2026-04-16 09:42 | 51.65167 | 1.08868 | 19859 ft | 417 kts | 43° |
| 2026-04-16 09:42 | 51.67156 | 1.12303 | 20482 ft | 421 kts | 43° |
| 2026-04-16 09:42 | 51.69157 | 1.15763 | 21097 ft | 424 kts | 43° |
| 2026-04-16 09:43 | 51.71176 | 1.19260 | 21728 ft | 428 kts | 43° |
| 2026-04-16 09:43 | 51.73217 | 1.22798 | 22342 ft | 432 kts | 43° |
| 2026-04-16 09:43 | 51.75275 | 1.26370 | 22893 ft | 437 kts | 43° |
| 2026-04-16 09:43 | 51.77346 | 1.29972 | 23114 ft | 438 kts | 43° |
| 2026-04-16 09:44 | 51.79419 | 1.33585 | 23125 ft | 439 kts | 43° |
| 2026-04-16 09:44 | 51.81494 | 1.37204 | 22878 ft | 438 kts | 43° |
| 2026-04-16 09:44 | 51.83555 | 1.40808 | 22607 ft | 435 kts | 43° |
| 2026-04-16 09:44 | 51.85607 | 1.44397 | 22356 ft | 433 kts | 43° |
| 2026-04-16 09:45 | 51.87647 | 1.47973 | 22088 ft | 432 kts | 43° |
| 2026-04-16 09:45 | 51.89678 | 1.51535 | 21823 ft | 430 kts | 43° |
| 2026-04-16 09:45 | 51.91703 | 1.55093 | 21567 ft | 428 kts | 43° |
| 2026-04-16 09:45 | 51.93716 | 1.58633 | 21307 ft | 427 kts | 43° |
| 2026-04-16 09:46 | 51.95723 | 1.62168 | 21055 ft | 425 kts | 43° |
| 2026-04-16 09:46 | 51.97663 | 1.65790 | 20801 ft | 427 kts | 50° |
| 2026-04-16 09:46 | 51.99176 | 1.69942 | 20554 ft | 429 kts | 63° |
| 2026-04-16 09:46 | 52.00138 | 1.74523 | 20317 ft | 430 kts | 75° |
| 2026-04-16 09:47 | 52.00858 | 1.79226 | 20064 ft | 428 kts | 75° |
| 2026-04-16 09:47 | 52.01584 | 1.83910 | 19821 ft | 427 kts | 75° |
| 2026-04-16 09:47 | 52.02299 | 1.88518 | 19580 ft | 425 kts | 75° |
| 2026-04-16 09:47 | 52.03028 | 1.93227 | 19338 ft | 423 kts | 75° |
| 2026-04-16 09:48 | 52.03732 | 1.97789 | 19211 ft | 421 kts | 75° |
| 2026-04-16 09:48 | 52.04441 | 2.02396 | 19173 ft | 422 kts | 75° |
| 2026-04-16 09:48 | 52.05151 | 2.07023 | 19174 ft | 422 kts | 75° |
| 2026-04-16 09:48 | 52.05858 | 2.11647 | 19172 ft | 422 kts | 75° |
| 2026-04-16 09:49 | 52.06564 | 2.16276 | 19175 ft | 422 kts | 75° |
| 2026-04-16 09:49 | 52.07267 | 2.20902 | 19174 ft | 422 kts | 75° |
| 2026-04-16 09:49 | 52.07968 | 2.25531 | 19144 ft | 422 kts | 75° |
| 2026-04-16 09:49 | 52.08669 | 2.30168 | 18923 ft | 421 kts | 75° |
| 2026-04-16 09:50 | 52.09364 | 2.34783 | 18680 ft | 419 kts | 75° |
| 2026-04-16 09:50 | 52.10054 | 2.39380 | 18434 ft | 417 kts | 75° |
| 2026-04-16 09:50 | 52.10729 | 2.43946 | 18185 ft | 415 kts | 77° |
| 2026-04-16 09:50 | 52.11182 | 2.48563 | 17903 ft | 412 kts | 88° |
| 2026-04-16 09:51 | 52.10918 | 2.53165 | 17594 ft | 406 kts | 106° |
| 2026-04-16 09:51 | 52.09894 | 2.57381 | 17170 ft | 397 kts | 121° |
| 2026-04-16 09:51 | 52.08542 | 2.61262 | 16643 ft | 392 kts | 124° |
| 2026-04-16 09:51 | 52.07197 | 2.65094 | 16125 ft | 388 kts | 122° |
| 2026-04-16 09:52 | 52.05965 | 2.68978 | 15620 ft | 386 kts | 115° |
| 2026-04-16 09:52 | 52.05339 | 2.73212 | 15107 ft | 387 kts | 97° |
| 2026-04-16 09:52 | 52.05155 | 2.77554 | 14608 ft | 383 kts | 95° |
| 2026-04-16 09:52 | 52.05002 | 2.81850 | 14135 ft | 379 kts | 95° |
| 2026-04-16 09:53 | 52.04851 | 2.86098 | 13603 ft | 375 kts | 95° |
| 2026-04-16 09:53 | 52.04696 | 2.90308 | 13047 ft | 372 kts | 96° |
| 2026-04-16 09:53 | 52.04535 | 2.94473 | 12517 ft | 368 kts | 96° |
| 2026-04-16 09:53 | 52.04370 | 2.98609 | 11991 ft | 365 kts | 96° |
| 2026-04-16 09:54 | 52.04204 | 3.02702 | 11472 ft | 362 kts | 96° |
| 2026-04-16 09:54 | 52.04040 | 3.06718 | 10971 ft | 359 kts | 96° |
| 2026-04-16 09:54 | 52.03874 | 3.10745 | 10551 ft | 353 kts | 96° |
| 2026-04-16 09:54 | 52.03712 | 3.14645 | 10407 ft | 339 kts | 96° |
| 2026-04-16 09:55 | 52.03557 | 3.18390 | 10277 ft | 326 kts | 96° |
| 2026-04-16 09:55 | 52.03404 | 3.22031 | 10146 ft | 313 kts | 97° |
| 2026-04-16 09:55 | 52.03258 | 3.25473 | 9827 ft | 308 kts | 97° |
| 2026-04-16 09:55 | 52.03108 | 3.28928 | 9427 ft | 305 kts | 97° |
| 2026-04-16 09:56 | 52.02958 | 3.32343 | 9043 ft | 302 kts | 97° |
| 2026-04-16 09:56 | 52.02810 | 3.35732 | 8649 ft | 299 kts | 97° |
| 2026-04-16 09:56 | 52.02662 | 3.39091 | 8263 ft | 298 kts | 96° |
| 2026-04-16 09:56 | 52.02515 | 3.42425 | 7911 ft | 294 kts | 96° |
| 2026-04-16 09:57 | 52.02369 | 3.45728 | 7534 ft | 292 kts | 96° |
| 2026-04-16 09:57 | 52.02223 | 3.49007 | 7169 ft | 290 kts | 96° |
| 2026-04-16 09:57 | 52.02077 | 3.52254 | 6826 ft | 287 kts | 96° |
| 2026-04-16 09:57 | 52.01931 | 3.55481 | 6472 ft | 285 kts | 96° |
| 2026-04-16 09:58 | 52.01848 | 3.58667 | 6231 ft | 280 kts | 89° |
| 2026-04-16 09:58 | 52.01988 | 3.61878 | 6191 ft | 288 kts | 87° |
| 2026-04-16 09:58 | 52.02149 | 3.65101 | 6189 ft | 285 kts | 87° |
| 2026-04-16 09:58 | 52.02312 | 3.68314 | 6191 ft | 286 kts | 87° |
| 2026-04-16 09:59 | 52.02475 | 3.71528 | 6149 ft | 285 kts | 87° |
| 2026-04-16 09:59 | 52.02640 | 3.74751 | 5817 ft | 287 kts | 87° |
| 2026-04-16 09:59 | 52.02800 | 3.78012 | 5196 ft | 295 kts | 87° |
| 2026-04-16 09:59 | 52.02956 | 3.81385 | 4468 ft | 304 kts | 87° |
| 2026-04-16 10:00 | 52.03108 | 3.84848 | 3750 ft | 311 kts | 87° |
| 2026-04-16 10:00 | 52.03251 | 3.88387 | 3033 ft | 317 kts | 87° |
| 2026-04-16 10:00 | 52.03396 | 3.91988 | 2370 ft | 321 kts | 87° |
| 2026-04-16 10:01 | 52.03821 | 3.98946 | 2013 ft | 294 kts | 82° |
| 2026-04-16 10:01 | 52.04128 | 4.02124 | 2008 ft | 276 kts | 82° |
| 2026-04-16 10:01 | 52.04424 | 4.05163 | 2012 ft | 274 kts | 82° |
| 2026-04-16 10:01 | 52.04712 | 4.08219 | 2011 ft | 273 kts | 82° |
| 2026-04-16 10:02 | 52.05005 | 4.11246 | 2006 ft | 271 kts | 82° |
| 2026-04-16 10:02 | 52.05293 | 4.14277 | 2008 ft | 274 kts | 82° |
| 2026-04-16 10:02 | 52.05583 | 4.17329 | 2006 ft | 272 kts | 82° |
| 2026-04-16 10:02 | 52.05869 | 4.20342 | 2001 ft | 275 kts | 82° |
| 2026-04-16 10:03 | 52.06158 | 4.23399 | 2000 ft | 272 kts | 82° |
| 2026-04-16 10:03 | 52.06444 | 4.26404 | 1998 ft | 263 kts | 82° |
| 2026-04-16 10:03 | 52.06719 | 4.29264 | 1995 ft | 249 kts | 82° |
| 2026-04-16 10:03 | 52.06981 | 4.31960 | 1997 ft | 238 kts | 82° |
| 2026-04-16 10:04 | 52.07243 | 4.34648 | 2003 ft | 242 kts | 82° |
| 2026-04-16 10:04 | 52.07505 | 4.37328 | 2005 ft | 241 kts | 82° |
| 2026-04-16 10:04 | 52.07765 | 4.40029 | 2004 ft | 242 kts | 82° |
| 2026-04-16 10:04 | 52.08025 | 4.42731 | 2004 ft | 241 kts | 82° |
| 2026-04-16 10:05 | 52.08281 | 4.45424 | 1996 ft | 241 kts | 82° |
| 2026-04-16 10:05 | 52.08537 | 4.48094 | 1992 ft | 234 kts | 82° |
| 2026-04-16 10:05 | 52.08779 | 4.50619 | 1995 ft | 220 kts | 82° |
| 2026-04-16 10:05 | 52.09018 | 4.53083 | 2025 ft | 218 kts | 82° |
| 2026-04-16 10:06 | 52.09262 | 4.55517 | 2004 ft | 219 kts | 82° |
| 2026-04-16 10:06 | 52.09513 | 4.57956 | 2002 ft | 221 kts | 82° |
| 2026-04-16 10:06 | 52.09745 | 4.60355 | 1999 ft | 210 kts | 82° |
| 2026-04-16 10:06 | 52.09896 | 4.61907 | 2004 ft | 209 kts | 82° |
| 2026-04-16 10:07 | 52.10125 | 4.64243 | 1999 ft | 209 kts | 82° |
| 2026-04-16 10:07 | 52.10423 | 4.67361 | 2002 ft | 211 kts | 82° |
| 2026-04-16 10:07 | 52.10647 | 4.69709 | 2002 ft | 209 kts | 82° |
| 2026-04-16 10:07 | 52.10853 | 4.72064 | 2002 ft | 212 kts | 89° |
| 2026-04-16 10:08 | 52.10714 | 4.73644 | 2008 ft | 206 kts | 114° |
| 2026-04-16 10:08 | 52.09861 | 4.75377 | 2010 ft | 196 kts | 149° |
| 2026-04-16 10:08 | 52.08617 | 4.76037 | 2005 ft | 185 kts | 187° |
| 2026-04-16 10:08 | 52.07518 | 4.75166 | 2016 ft | 178 kts | 234° |
| 2026-04-16 10:09 | 52.06998 | 4.73282 | 2009 ft | 185 kts | 250° |
| 2026-04-16 10:09 | 52.06503 | 4.71344 | 2021 ft | 185 kts | 244° |
| 2026-04-16 10:09 | 52.05881 | 4.69536 | 2019 ft | 188 kts | 239° |
| 2026-04-16 10:09 | 52.05169 | 4.67745 | 2017 ft | 187 kts | 237° |
| 2026-04-16 10:10 | 52.04463 | 4.65981 | 2021 ft | 185 kts | 238° |
| 2026-04-16 10:10 | 52.03762 | 4.64218 | 2022 ft | 188 kts | 237° |
| 2026-04-16 10:10 | 52.03052 | 4.62445 | 2025 ft | 186 kts | 237° |
| 2026-04-16 10:10 | 52.02352 | 4.60688 | 2026 ft | 187 kts | 237° |
| 2026-04-16 10:11 | 52.01644 | 4.58912 | 2017 ft | 186 kts | 238° |
| 2026-04-16 10:11 | 52.00949 | 4.57176 | 1787 ft | 176 kts | 237° |
| 2026-04-16 10:11 | 52.00322 | 4.55602 | 1549 ft | 160 kts | 237° |
| 2026-04-16 10:11 | 51.99679 | 4.53997 | 1331 ft | 174 kts | 237° |
| 2026-04-16 10:12 | 51.99022 | 4.52352 | 1084 ft | 173 kts | 236° |
| 2026-04-16 10:12 | 51.98398 | 4.50793 | 846 ft | 156 kts | 236° |
| 2026-04-16 10:12 | 51.97840 | 4.49396 | 653 ft | 144 kts | 236° |
| 2026-04-16 10:12 | 51.97320 | 4.48096 | 466 ft | 134 kts | 235° |
| 2026-04-16 10:13 | 51.96797 | 4.46804 | 272 ft | 140 kts | 235° |
| 2026-04-16 10:13 | 51.96268 | 4.45499 | 31 ft | 136 kts | 236° |
| 2026-04-16 10:13 | 51.95820 | 4.44382 | -5 ft | 80 kts | 237° |
| 2026-04-16 10:13 | 51.95592 | 4.43811 | -5 ft | 37 kts | 235° |
| 2026-04-16 10:14 | 51.95426 | 4.43547 | -5 ft | 26 kts | 214° |
| 2026-04-16 10:14 | 51.95369 | 4.43481 | -5 ft | 0 kts | 215° |
| 2026-04-16 10:14 | 51.95357 | 4.43468 | -5 ft | 6 kts | 216° |
| 2026-04-16 10:14 | 51.95311 | 4.43424 | -5 ft | 9 kts | 199° |
| 2026-04-16 10:15 | 51.95243 | 4.43439 | -6 ft | 13 kts | 152° |
| 2026-04-16 10:15 | 51.95153 | 4.43538 | -6 ft | 14 kts | 145° |
| 2026-04-16 10:15 | 51.95106 | 4.43579 | -6 ft | 3 kts | 175° |
| 2026-04-16 10:15 | 51.95079 | 4.43555 | -6 ft | 7 kts | 228° |
| 2026-04-16 10:16 | 51.95053 | 4.43468 | -6 ft | 5 kts | 285° |
| 2026-04-16 10:16 | 51.95081 | 4.43436 | -6 ft | 6 kts | 328° |
| 2026-04-16 10:16 | 51.95090 | 4.43427 | -6 ft | 0 kts | 329° |